Airport View

Enter AWOS ICAO identifier for current METAR.

ex. KFNL

KZPH 022315Z AUTO 10009KT 10SM SCT028 BKN080 27/21 A3007 RMK A02 T02740213

2 Jun 2020 23:35

Frequency: 118.975

Phone: 813-780-0031

Other Area AWOS: KPCM - KVDF - KLAL - KBKV

TAF KLAL 021746Z 0218/0318 10012G20KT P6SM VCTS SCT030CB BKN060 TEMPO 0218/0222 VRB15G25KT 2SM TSRA BKN025CB FM030200 08006KT P6SM VCSH SCT015 BKN040 FM031500 11010KT P6SM VCTS SCT025CB BKN050